Time;durP1;ratioP1;P1;durP2;ratioP2;P2;SDS_P1;SDS_P2;PMS_P1;PMS_P2;Temp;Humidity;BMP_temperature;BMP_pressure;BME280_temperature;BME280_humidity;BME280_pressure;Samples;Min_cycle;Max_cycle;Signal;HPM_P1;HPM_P2
2021/03/09 00:02:06;;;;;;;76.83;34.10;;;5.60;99.90;;;;;;5033996;28;20210;-69
2021/03/09 00:04:32;;;;;;;73.20;33.20;;;5.60;99.90;;;;;;5034869;28;20521;-69
2021/03/09 00:06:57;;;;;;;65.77;32.83;;;5.60;99.90;;;;;;5034611;28;20464;-69
2021/03/09 00:09:23;;;;;;;59.93;31.07;;;5.60;99.90;;;;;;5033738;28;20170;-69
2021/03/09 00:11:48;;;;;;;64.40;34.07;;;5.60;99.90;;;;;;5033255;28;20739;-70
2021/03/09 00:14:14;;;;;;;61.00;31.33;;;5.50;99.90;;;;;;5034335;28;20555;-69
2021/03/09 00:16:39;;;;;;;60.63;30.40;;;5.50;99.90;;;;;;5035083;28;20256;-69
2021/03/09 00:19:05;;;;;;;61.90;34.20;;;5.60;99.90;;;;;;5034198;28;20174;-70
2021/03/09 00:21:30;;;;;;;64.03;30.97;;;5.60;99.90;;;;;;5033888;28;20207;-68
2021/03/09 00:23:56;;;;;;;66.33;33.43;;;5.60;99.90;;;;;;5034317;28;20544;-68
2021/03/09 00:26:21;;;;;;;63.57;31.93;;;5.60;99.90;;;;;;5035064;28;20199;-69
2021/03/09 00:28:47;;;;;;;66.17;32.37;;;5.60;99.90;;;;;;5033969;28;20171;-68
2021/03/09 00:31:12;;;;;;;65.30;31.70;;;5.60;99.90;;;;;;5033638;28;20191;-69
2021/03/09 00:33:38;;;;;;;59.53;31.13;;;5.70;99.90;;;;;;5033413;28;20186;-68
2021/03/09 00:36:04;;;;;;;71.10;34.30;;;5.70;99.90;;;;;;5035145;28;20246;-68
2021/03/09 00:38:29;;;;;;;64.83;33.13;;;5.80;99.90;;;;;;5033592;28;20179;-69
2021/03/09 00:40:55;;;;;;;61.90;31.47;;;5.80;99.90;;;;;;5033571;28;20229;-69
2021/03/09 00:43:20;;;;;;;65.43;33.60;;;5.90;99.90;;;;;;5035961;28;20173;-69
2021/03/09 00:45:46;;;;;;;67.63;33.60;;;5.90;99.90;;;;;;5037785;28;20555;-69
2021/03/09 00:48:11;;;;;;;59.40;31.77;;;5.80;99.90;;;;;;5038254;28;20198;-69
2021/03/09 00:50:37;;;;;;;65.93;33.00;;;5.80;99.90;;;;;;5037671;28;20191;-69
2021/03/09 00:53:02;;;;;;;66.03;32.00;;;5.70;99.90;;;;;;5037259;28;20192;-68
2021/03/09 00:55:28;;;;;;;64.33;32.77;;;5.70;99.90;;;;;;5037899;28;20186;-70
2021/03/09 00:57:58;;;;;;;62.33;35.37;;;5.70;99.90;;;;;;5038523;28;20182;-68
2021/03/09 01:00:26;;;;;;;66.50;33.20;;;5.70;99.90;;;;;;5037120;28;20203;-69
2021/03/09 01:02:51;;;;;;;69.73;35.23;;;5.70;99.90;;;;;;5036924;28;20480;-69
2021/03/09 01:05:18;;;;;;;57.10;32.67;;;5.60;99.90;;;;;;5037637;28;20872;-70
2021/03/09 01:07:43;;;;;;;65.57;34.77;;;5.70;99.90;;;;;;5037287;28;20178;-67
2021/03/09 01:10:11;;;;;;;72.80;37.00;;;5.60;99.90;;;;;;5038491;28;20440;-69
2021/03/09 01:12:36;;;;;;;72.00;34.50;;;5.50;99.90;;;;;;5038002;28;20183;-69
2021/03/09 01:15:03;;;;;;;71.87;34.33;;;5.50;99.90;;;;;;5037572;28;20885;-69
2021/03/09 01:17:29;;;;;;;70.77;34.03;;;5.50;99.90;;;;;;5037259;28;20409;-68
2021/03/09 01:19:54;;;;;;;75.27;38.30;;;5.50;99.90;;;;;;5037779;28;20783;-68
2021/03/09 01:22:20;;;;;;;73.30;37.40;;;5.40;99.90;;;;;;5037344;28;20202;-69
2021/03/09 01:24:46;;;;;;;81.37;37.80;;;5.40;99.90;;;;;;5037840;28;20174;-69
2021/03/09 01:27:11;;;;;;;74.17;36.20;;;5.40;99.90;;;;;;5037617;28;20187;-68
2021/03/09 01:29:38;;;;;;;66.93;36.33;;;5.30;99.90;;;;;;5036614;28;20184;-69
2021/03/09 01:32:04;;;;;;;69.83;36.60;;;5.40;99.90;;;;;;5036839;28;20527;-69
2021/03/09 01:34:30;;;;;;;79.57;37.90;;;5.50;99.90;;;;;;5036790;28;20805;-69
2021/03/09 01:36:55;;;;;;;67.30;34.83;;;5.50;99.90;;;;;;5036565;28;20417;-69
2021/03/09 01:39:21;;;;;;;65.73;34.07;;;5.60;99.90;;;;;;5037260;28;20187;-68
2021/03/09 01:41:47;;;;;;;67.37;34.67;;;5.60;99.90;;;;;;5036690;28;20217;-69
2021/03/09 01:44:13;;;;;;;59.90;32.77;;;5.60;99.90;;;;;;5035477;28;20266;-69
2021/03/09 01:46:41;;;;;;;62.50;32.43;;;5.70;99.90;;;;;;5036664;28;20497;-70
2021/03/09 01:49:07;;;;;;;52.53;31.70;;;5.70;99.90;;;;;;5037019;28;20174;-68
2021/03/09 01:51:33;;;;;;;56.67;31.33;;;5.60;99.90;;;;;;5036507;28;20500;-70
2021/03/09 01:53:58;;;;;;;66.93;34.90;;;5.60;99.90;;;;;;5035441;28;20950;-69
2021/03/09 01:56:24;;;;;;;56.33;31.87;;;5.70;99.90;;;;;;5036527;28;20179;-69
2021/03/09 01:58:51;;;;;;;55.60;32.80;;;5.70;99.90;;;;;;5035871;28;20217;-69
2021/03/09 02:01:17;;;;;;;60.03;33.03;;;5.70;99.90;;;;;;5037139;28;20234;-69
2021/03/09 02:03:43;;;;;;;53.27;31.17;;;5.70;99.90;;;;;;5035858;28;20416;-69
2021/03/09 02:06:12;;;;;;;59.73;32.50;;;5.70;99.90;;;;;;5036095;28;20682;-70
2021/03/09 02:08:38;;;;;;;59.30;32.83;;;5.70;99.90;;;;;;5035635;28;20405;-69
2021/03/09 02:11:11;;;;;;;55.83;32.80;;;5.70;99.90;;;;;;5037173;28;20490;-69
2021/03/09 02:13:43;;;;;;;59.13;32.97;;;5.60;99.90;;;;;;5035974;28;20159;-69
2021/03/09 02:16:28;;;;;;;61.30;34.13;;;5.70;99.90;;;;;;5036110;28;20409;-69
2021/03/09 02:19:05;;;;;;;57.37;34.23;;;5.60;99.90;;;;;;5035629;28;20459;-69
2021/03/09 02:21:49;;;;;;;59.07;32.47;;;5.70;99.90;;;;;;5035701;28;20465;-69
2021/03/09 02:24:34;;;;;;;57.20;33.00;;;5.70;99.90;;;;;;5036335;28;20412;-68
2021/03/09 02:27:25;;;;;;;56.70;31.20;;;5.70;99.90;;;;;;5034686;28;20410;-68
2021/03/09 02:30:01;;;;;;;57.30;32.27;;;5.80;99.90;;;;;;5035875;28;20779;-69
2021/03/09 02:32:30;;;;;;;59.67;33.40;;;5.80;99.90;;;;;;5036606;28;20939;-68
2021/03/09 02:34:58;;;;;;;57.70;32.43;;;5.80;99.90;;;;;;5035974;28;20722;-68
2021/03/09 02:37:30;;;;;;;59.60;33.77;;;5.70;99.90;;;;;;5035984;28;20943;-68
2021/03/09 02:39:57;;;;;;;56.60;33.07;;;5.70;99.90;;;;;;5035534;28;20430;-68
2021/03/09 02:42:25;;;;;;;60.67;31.90;;;5.80;99.90;;;;;;5034984;28;20455;-68
2021/03/09 02:44:55;;;;;;;60.20;33.63;;;5.80;99.90;;;;;;5035474;28;20921;-68
2021/03/09 02:47:21;;;;;;;60.97;32.00;;;5.80;99.90;;;;;;5035257;28;20786;-68
2021/03/09 02:49:49;;;;;;;60.13;33.27;;;5.80;99.90;;;;;;5033721;28;20437;-68
2021/03/09 02:52:21;;;;;;;57.90;33.00;;;5.70;99.90;;;;;;5035669;28;20441;-67
2021/03/09 02:54:48;;;;;;;55.23;32.57;;;5.70;99.90;;;;;;5035267;28;20751;-69
2021/03/09 02:57:15;;;;;;;60.00;33.43;;;5.70;99.90;;;;;;5035403;28;20406;-70
2021/03/09 02:59:42;;;;;;;59.37;33.50;;;5.70;99.90;;;;;;5034959;28;20429;-67
2021/03/09 03:02:10;;;;;;;58.47;33.57;;;5.70;99.90;;;;;;5035951;28;20445;-69
2021/03/09 03:04:37;;;;;;;52.40;32.33;;;5.80;99.90;;;;;;5040510;28;20445;-68
2021/03/09 03:07:03;;;;;;;59.13;32.70;;;5.80;99.90;;;;;;5053880;28;20414;-69
2021/03/09 03:09:29;;;;;;;58.80;30.17;;;5.80;99.90;;;;;;5049681;28;20409;-69
2021/03/09 03:11:56;;;;;;;54.20;32.87;;;5.80;99.90;;;;;;5040183;28;20406;-68
2021/03/09 03:14:23;;;;;;;54.17;33.43;;;5.80;99.90;;;;;;5062952;28;20464;-68
2021/03/09 03:16:50;;;;;;;50.20;31.50;;;5.70;99.90;;;;;;5076700;28;20441;-69
2021/03/09 03:19:16;;;;;;;52.93;31.17;;;5.60;99.90;;;;;;5059057;28;20819;-69
2021/03/09 03:21:43;;;;;;;54.63;32.97;;;5.60;99.90;;;;;;5054431;28;20801;-68
2021/03/09 03:24:10;;;;;;;53.33;30.87;;;5.60;99.90;;;;;;5053505;28;20495;-69
2021/03/09 03:26:38;;;;;;;52.80;30.20;;;5.60;99.90;;;;;;5054568;28;20409;-68
2021/03/09 03:29:10;;;;;;;53.23;30.80;;;5.60;99.90;;;;;;5055384;28;20400;-68
2021/03/09 03:31:36;;;;;;;56.77;32.13;;;5.50;99.90;;;;;;5056117;28;20425;-68
2021/03/09 03:34:04;;;;;;;48.93;29.80;;;5.50;99.90;;;;;;5055399;28;20404;-68
2021/03/09 03:36:32;;;;;;;56.77;31.40;;;5.60;99.90;;;;;;5053485;28;20470;-68
2021/03/09 03:38:57;;;;;;;50.73;30.60;;;5.60;99.90;;;;;;5055283;28;20404;-68
2021/03/09 03:41:23;;;;;;;49.70;28.50;;;5.60;99.90;;;;;;5056852;28;20936;-68
2021/03/09 03:43:49;;;;;;;53.43;31.77;;;5.50;99.90;;;;;;5056190;28;20174;-68
2021/03/09 03:46:14;;;;;;;54.40;30.67;;;5.50;99.90;;;;;;5053305;28;20178;-68
2021/03/09 03:48:42;;;;;;;53.53;32.43;;;5.50;99.90;;;;;;5055271;28;20397;-68
2021/03/09 03:51:13;;;;;;;50.80;28.77;;;5.50;99.90;;;;;;5054721;28;20198;-68
2021/03/09 03:54:00;;;;;;;46.93;29.27;;;5.50;99.90;;;;;;5055177;28;20397;-68
2021/03/09 03:56:46;;;;;;;57.27;31.30;;;5.40;99.90;;;;;;5053834;28;20925;-69
2021/03/09 03:59:18;;;;;;;53.20;29.13;;;5.40;99.90;;;;;;5055223;28;20914;-69
2021/03/09 04:01:45;;;;;;;55.37;32.10;;;5.40;99.90;;;;;;5055229;28;20842;-68
2021/03/09 04:04:12;;;;;;;51.90;30.70;;;5.40;99.90;;;;;;5053359;28;20424;-69
2021/03/09 04:06:43;;;;;;;48.30;29.43;;;5.40;99.90;;;;;;5055059;28;20408;-68
2021/03/09 04:09:10;;;;;;;52.40;31.50;;;5.40;99.90;;;;;;5054848;28;20462;-68
2021/03/09 04:11:37;;;;;;;50.63;30.53;;;5.40;99.90;;;;;;5055176;28;20493;-68
2021/03/09 04:14:03;;;;;;;48.07;29.03;;;5.40;99.90;;;;;;5055803;28;20825;-68
2021/03/09 04:16:30;;;;;;;49.47;30.97;;;5.40;99.90;;;;;;5053769;28;20448;-68
2021/03/09 04:18:56;;;;;;;53.20;31.50;;;5.40;99.90;;;;;;5056688;28;20516;-68
2021/03/09 04:21:26;;;;;;;47.73;29.50;;;5.50;99.90;;;;;;5052499;28;20508;-68
2021/03/09 04:23:52;;;;;;;50.63;30.40;;;5.40;99.90;;;;;;5048495;28;20444;-68
2021/03/09 04:26:20;;;;;;;52.20;30.57;;;5.50;99.90;;;;;;5047103;28;20420;-69
2021/03/09 04:28:45;;;;;;;57.83;33.00;;;5.40;99.90;;;;;;5057970;28;20437;-69
2021/03/09 04:31:12;;;;;;;59.70;31.97;;;5.40;99.90;;;;;;5058275;28;20544;-69
2021/03/09 04:33:37;;;;;;;60.30;32.37;;;5.40;99.90;;;;;;5059050;28;20965;-68
2021/03/09 04:36:04;;;;;;;61.73;32.43;;;5.40;99.90;;;;;;5058821;28;20471;-68
2021/03/09 04:38:30;;;;;;;57.20;33.33;;;5.30;99.90;;;;;;5058592;28;20175;-68
2021/03/09 04:40:57;;;;;;;53.90;33.13;;;5.30;99.90;;;;;;5059100;28;20440;-68
2021/03/09 04:43:23;;;;;;;56.70;32.73;;;5.20;99.90;;;;;;5059086;28;20543;-68
2021/03/09 04:45:48;;;;;;;58.20;35.07;;;5.30;99.90;;;;;;5058991;28;20489;-68
2021/03/09 04:48:14;;;;;;;56.07;32.47;;;5.30;99.90;;;;;;5056734;28;20180;-68
2021/03/09 04:50:40;;;;;;;57.50;33.93;;;5.30;99.90;;;;;;5059065;28;20648;-68
2021/03/09 04:53:06;;;;;;;56.97;32.63;;;5.20;99.90;;;;;;5058560;28;20232;-69
2021/03/09 04:55:31;;;;;;;58.37;32.60;;;5.20;99.90;;;;;;5058662;28;20400;-68
2021/03/09 04:57:57;;;;;;;58.17;35.07;;;5.30;99.90;;;;;;5056861;28;20314;-68
2021/03/09 05:00:25;;;;;;;62.10;33.67;;;5.30;99.90;;;;;;5059101;28;20268;-68
2021/03/09 05:02:52;;;;;;;66.47;35.40;;;5.20;99.90;;;;;;5058721;28;20464;-68
2021/03/09 05:05:20;;;;;;;65.53;37.83;;;5.30;99.90;;;;;;5058917;28;20402;-68
2021/03/09 05:07:46;;;;;;;71.13;37.17;;;5.20;99.90;;;;;;5057089;28;20469;-68
2021/03/09 05:10:12;;;;;;;61.00;35.87;;;5.10;99.90;;;;;;5039147;28;20425;-69
2021/03/09 05:12:43;;;;;;;60.60;37.17;;;5.10;99.90;;;;;;5038101;28;20192;-68
2021/03/09 05:15:10;;;;;;;69.63;38.13;;;5.10;99.90;;;;;;5038208;28;20415;-68
2021/03/09 05:17:36;;;;;;;65.37;37.53;;;5.20;99.90;;;;;;5039592;28;20418;-68
2021/03/09 05:20:04;;;;;;;61.60;36.47;;;5.20;99.90;;;;;;5038399;28;20994;-68
2021/03/09 05:22:29;;;;;;;66.87;36.10;;;5.20;99.90;;;;;;5037474;28;20483;-69
2021/03/09 05:24:55;;;;;;;64.30;38.50;;;5.10;99.90;;;;;;5038513;28;20508;-69
2021/03/09 05:27:20;;;;;;;74.17;40.90;;;5.10;99.90;;;;;;5038223;28;20197;-68
2021/03/09 05:29:46;;;;;;;60.27;38.27;;;5.10;99.90;;;;;;5038854;28;20271;-68
2021/03/09 05:32:11;;;;;;;66.83;37.87;;;5.10;99.90;;;;;;5040658;28;20178;-69
2021/03/09 05:34:37;;;;;;;58.10;34.90;;;4.90;99.90;;;;;;5055873;28;20180;-69
2021/03/09 05:37:03;;;;;;;57.17;35.27;;;4.90;99.90;;;;;;5057023;28;20208;-69
2021/03/09 05:39:28;;;;;;;61.20;34.33;;;4.80;99.90;;;;;;5056399;28;20179;-69
2021/03/09 05:41:54;;;;;;;54.30;33.60;;;4.80;99.90;;;;;;5056113;28;20204;-70
2021/03/09 05:44:19;;;;;;;60.70;35.80;;;4.90;99.90;;;;;;5055070;28;20189;-69
2021/03/09 05:46:45;;;;;;;63.37;35.67;;;4.90;99.90;;;;;;5055781;28;20642;-69
2021/03/09 05:49:11;;;;;;;59.80;34.97;;;4.90;99.90;;;;;;5056084;28;20213;-69
2021/03/09 05:51:38;;;;;;;53.07;34.30;;;4.80;99.90;;;;;;5054140;28;20447;-69
2021/03/09 05:54:03;;;;;;;54.30;33.70;;;4.80;99.90;;;;;;5055923;28;20188;-69
2021/03/09 05:56:29;;;;;;;60.10;34.13;;;4.80;99.90;;;;;;5056334;28;20778;-68
2021/03/09 05:58:54;;;;;;;64.47;36.70;;;4.80;99.90;;;;;;5055751;28;20181;-69
2021/03/09 06:01:20;;;;;;;59.43;33.33;;;4.80;99.90;;;;;;5049973;28;20962;-69
2021/03/09 06:03:46;;;;;;;55.30;33.83;;;4.70;99.90;;;;;;5053676;28;20209;-69
2021/03/09 06:06:13;;;;;;;57.90;34.60;;;4.80;99.90;;;;;;5035991;28;20239;-70
2021/03/09 06:08:39;;;;;;;55.40;32.77;;;4.80;99.90;;;;;;5035690;28;20901;-68
2021/03/09 06:11:12;;;;;;;57.13;33.37;;;4.80;99.90;;;;;;5035943;28;20450;-71
2021/03/09 06:13:38;;;;;;;61.57;33.53;;;4.80;99.90;;;;;;5045605;28;20443;-68
2021/03/09 06:16:04;;;;;;;56.00;31.53;;;4.90;99.90;;;;;;5050243;28;20424;-68
2021/03/09 06:18:30;;;;;;;57.50;34.47;;;4.80;99.90;;;;;;5049450;28;20770;-68
2021/03/09 06:21:15;;;;;;;58.07;32.37;;;4.70;99.90;;;;;;5054388;28;20444;-69
2021/03/09 06:23:43;;;;;;;58.90;33.37;;;4.60;99.90;;;;;;5044711;28;20182;-69
2021/03/09 06:26:31;;;;;;;54.77;31.03;;;4.60;99.90;;;;;;5035239;28;20425;-68
2021/03/09 06:29:14;;;;;;;51.00;31.33;;;4.70;99.90;;;;;;5047786;28;20757;-70
2021/03/09 06:31:58;;;;;;;48.10;31.00;;;4.70;99.90;;;;;;5059954;28;20462;-70
2021/03/09 06:34:32;;;;;;;46.60;29.90;;;4.80;99.90;;;;;;5057430;28;20420;-70
2021/03/09 06:37:05;;;;;;;47.67;29.80;;;4.80;99.90;;;;;;5064938;28;20930;-70
2021/03/09 06:39:57;;;;;;;50.57;30.60;;;4.80;99.90;;;;;;5098638;28;20746;-70
2021/03/09 06:42:38;;;;;;;48.90;30.13;;;4.80;99.90;;;;;;5078872;28;20491;-70
2021/03/09 06:45:09;;;;;;;53.80;30.77;;;4.90;99.90;;;;;;5072601;28;20420;-69
2021/03/09 06:47:37;;;;;;;48.73;30.03;;;4.90;99.90;;;;;;5067875;28;20936;-70
2021/03/09 06:50:14;;;;;;;49.20;28.57;;;4.90;99.90;;;;;;5060763;28;20519;-70
2021/03/09 06:52:41;;;;;;;52.40;30.87;;;4.90;99.90;;;;;;5072567;28;20519;-69
2021/03/09 06:55:12;;;;;;;47.93;28.47;;;4.90;99.90;;;;;;5059064;28;20431;-68
2021/03/09 06:57:39;;;;;;;43.70;28.97;;;4.90;99.90;;;;;;5056298;28;20951;-69
2021/03/09 07:00:09;;;;;;;45.67;27.27;;;4.90;99.90;;;;;;5056580;28;20434;-69
2021/03/09 07:02:35;;;;;;;45.37;28.83;;;5.00;99.90;;;;;;5059035;28;20467;-70
2021/03/09 07:05:10;;;;;;;45.53;28.30;;;5.10;99.90;;;;;;5050933;28;20427;-70
2021/03/09 07:07:41;;;;;;;51.43;30.90;;;5.10;99.90;;;;;;5047106;28;20216;-69
2021/03/09 07:10:08;;;;;;;45.90;28.80;;;5.20;99.90;;;;;;5077424;28;20492;-70
2021/03/09 07:12:34;;;;;;;50.07;30.40;;;5.10;99.90;;;;;;5064064;28;20423;-70
2021/03/09 07:15:01;;;;;;;49.30;30.20;;;5.10;99.90;;;;;;5053734;28;20420;-69
2021/03/09 07:17:29;;;;;;;49.50;28.50;;;5.10;99.90;;;;;;5050843;28;20435;-69
2021/03/09 07:19:55;;;;;;;42.43;27.40;;;5.10;99.90;;;;;;5058270;28;20462;-69
2021/03/09 07:22:22;;;;;;;46.10;27.93;;;5.20;99.90;;;;;;5065699;28;20555;-70
2021/03/09 07:25:13;;;;;;;48.50;29.47;;;5.20;99.90;;;;;;5055927;28;20926;-69
2021/03/09 07:28:00;;;;;;;49.80;30.87;;;5.10;99.90;;;;;;5042364;28;20415;-69
2021/03/09 07:30:34;;;;;;;46.60;29.13;;;5.10;99.90;;;;;;5058320;28;20515;-69
2021/03/09 07:33:00;;;;;;;47.67;28.23;;;5.00;99.90;;;;;;5053830;28;20490;-70
2021/03/09 07:35:28;;;;;;;50.93;31.70;;;5.00;99.90;;;;;;5066348;28;20495;-69
2021/03/09 07:37:54;;;;;;;51.20;29.43;;;5.10;99.90;;;;;;5059880;28;20185;-69
2021/03/09 07:40:23;;;;;;;49.37;30.00;;;5.10;99.90;;;;;;5058615;28;20428;-70
2021/03/09 07:42:49;;;;;;;48.10;28.50;;;5.10;99.90;;;;;;5058803;28;20864;-68
2021/03/09 07:45:16;;;;;;;43.40;26.77;;;5.10;99.90;;;;;;5052349;28;20432;-69
2021/03/09 07:47:50;;;;;;;45.53;28.77;;;5.10;99.90;;;;;;5057830;28;20181;-69
2021/03/09 07:50:18;;;;;;;45.47;29.20;;;5.20;99.90;;;;;;5049041;28;20484;-69
2021/03/09 07:52:59;;;;;;;42.93;27.53;;;5.30;99.90;;;;;;5046773;28;21185;-70
2021/03/09 07:55:26;;;;;;;40.83;25.40;;;5.20;99.90;;;;;;5038405;28;20455;-69
2021/03/09 07:58:13;;;;;;;38.90;25.93;;;5.30;99.90;;;;;;5049790;28;20417;-69
2021/03/09 08:01:00;;;;;;;42.97;25.87;;;5.30;99.90;;;;;;5056564;28;20535;-69
2021/03/09 08:03:31;;;;;;;40.90;25.07;;;5.30;99.90;;;;;;5038284;28;20888;-69
2021/03/09 08:06:09;;;;;;;40.27;26.17;;;5.30;99.90;;;;;;5055909;28;20996;-69
2021/03/09 08:08:41;;;;;;;40.23;26.50;;;5.30;99.90;;;;;;5056345;28;20909;-69
2021/03/09 08:11:27;;;;;;;39.33;25.27;;;5.20;99.90;;;;;;5047286;28;20458;-69
2021/03/09 08:14:08;;;;;;;42.23;26.97;;;5.20;99.90;;;;;;5055416;28;20889;-70
2021/03/09 08:16:34;;;;;;;46.33;26.23;;;5.10;99.90;;;;;;5048710;28;20498;-69
2021/03/09 08:19:04;;;;;;;34.87;23.07;;;5.10;99.90;;;;;;5046589;28;20427;-69
2021/03/09 08:21:39;;;;;;;39.80;23.67;;;5.10;99.90;;;;;;5048740;28;20564;-69
2021/03/09 08:24:05;;;;;;;39.13;24.37;;;5.20;99.90;;;;;;5048570;28;20948;-68
2021/03/09 08:26:30;;;;;;;35.83;24.50;;;5.10;99.90;;;;;;5050055;28;20515;-70
2021/03/09 08:28:57;;;;;;;37.37;24.77;;;5.10;99.90;;;;;;5049718;28;20516;-70
2021/03/09 08:31:26;;;;;;;38.80;25.33;;;5.10;99.90;;;;;;5051617;28;20666;-69
2021/03/09 08:34:08;;;;;;;39.17;24.87;;;5.10;99.90;;;;;;5044526;28;20425;-69
2021/03/09 08:36:37;;;;;;;35.30;23.73;;;5.20;99.90;;;;;;5051061;28;20443;-69
2021/03/09 08:39:03;;;;;;;40.00;25.90;;;5.20;99.90;;;;;;5050187;28;20420;-70
2021/03/09 08:41:48;;;;;;;39.80;25.67;;;5.10;99.90;;;;;;5058645;28;20432;-70
2021/03/09 08:44:16;;;;;;;37.33;25.97;;;5.10;99.90;;;;;;5051721;28;20701;-71
2021/03/09 08:47:11;;;;;;;41.07;24.80;;;5.10;99.90;;;;;;5049780;28;20417;-71
2021/03/09 08:49:37;;;;;;;37.17;24.40;;;5.10;99.90;;;;;;5042826;28;20877;-70
2021/03/09 08:52:17;;;;;;;36.63;24.27;;;5.20;99.90;;;;;;5053986;28;20474;-69
2021/03/09 08:54:49;;;;;;;34.27;23.10;;;5.20;99.90;;;;;;5050302;28;20563;-71
2021/03/09 08:57:24;;;;;;;38.47;25.00;;;5.10;99.90;;;;;;5068707;28;20494;-69
2021/03/09 09:00:01;;;;;;;34.80;22.77;;;5.10;99.90;;;;;;5057880;28;20477;-69
2021/03/09 09:02:27;;;;;;;35.10;23.20;;;5.10;99.90;;;;;;5051183;28;20487;-69
2021/03/09 09:05:01;;;;;;;34.23;22.80;;;5.10;99.90;;;;;;5065383;28;20423;-68
2021/03/09 09:07:28;;;;;;;33.07;22.27;;;5.10;99.90;;;;;;5058551;28;20413;-69
2021/03/09 09:10:12;;;;;;;34.67;24.00;;;5.20;99.90;;;;;;5067707;28;20463;-69
2021/03/09 09:12:45;;;;;;;31.77;21.30;;;5.30;99.90;;;;;;5062327;28;20483;-70
2021/03/09 09:15:19;;;;;;;33.67;21.77;;;5.20;99.90;;;;;;5069966;28;20431;-70
2021/03/09 09:18:05;;;;;;;33.93;23.53;;;5.20;99.90;;;;;;5057763;28;20483;-68
2021/03/09 09:20:40;;;;;;;26.97;20.90;;;5.30;99.90;;;;;;5053445;28;20542;-69
2021/03/09 09:23:12;;;;;;;33.03;22.50;;;5.20;99.90;;;;;;5050325;28;20463;-69
2021/03/09 09:25:53;;;;;;;34.17;22.17;;;5.20;99.90;;;;;;5064921;28;20436;-70
2021/03/09 09:28:30;;;;;;;31.47;22.47;;;5.10;99.90;;;;;;5048601;28;20751;-70
2021/03/09 09:30:58;;;;;;;33.70;21.73;;;5.00;99.90;;;;;;5049205;28;20516;-71
2021/03/09 09:33:24;;;;;;;29.63;20.13;;;5.10;99.90;;;;;;5049927;28;20496;-70
2021/03/09 09:35:50;;;;;;;32.53;21.30;;;5.10;99.90;;;;;;5043483;28;20876;-70
2021/03/09 09:38:19;;;;;;;35.87;23.70;;;5.30;99.90;;;;;;5052737;28;20436;-71
2021/03/09 09:40:47;;;;;;;32.10;22.33;;;5.30;99.90;;;;;;5066602;28;20438;-70
2021/03/09 09:43:14;;;;;;;36.03;23.63;;;5.40;99.90;;;;;;5060529;28;20498;-69
2021/03/09 09:45:50;;;;;;;30.83;22.23;;;5.50;99.90;;;;;;5065883;28;20407;-68
2021/03/09 09:48:19;;;;;;;27.53;20.30;;;5.60;99.90;;;;;;5052100;28;20446;-70
2021/03/09 09:50:47;;;;;;;28.37;20.00;;;5.70;99.90;;;;;;5062077;28;20474;-68
2021/03/09 09:53:33;;;;;;;31.70;20.83;;;5.70;99.90;;;;;;5053519;28;20514;-70
2021/03/09 09:56:00;;;;;;;28.30;20.03;;;5.80;99.90;;;;;;5081021;28;20446;-70
2021/03/09 09:58:49;;;;;;;28.73;19.77;;;5.90;99.90;;;;;;5080212;28;20435;-69
2021/03/09 10:01:23;;;;;;;30.07;19.27;;;5.60;99.90;;;;;;5087804;28;20990;-69
2021/03/09 10:03:59;;;;;;;24.00;17.43;;;5.60;99.90;;;;;;5074132;28;20423;-69
2021/03/09 10:06:44;;;;;;;29.87;18.47;;;5.60;99.90;;;;;;5085601;28;20423;-70
2021/03/09 10:09:22;;;;;;;28.80;19.33;;;5.50;99.90;;;;;;5080582;28;20439;-68
2021/03/09 10:12:01;;;;;;;25.03;18.57;;;5.40;99.90;;;;;;5061120;28;20467;-70
2021/03/09 10:14:30;;;;;;;26.87;17.97;;;5.20;99.90;;;;;;5089047;28;20469;-70
2021/03/09 10:16:56;;;;;;;25.60;17.00;;;5.30;99.90;;;;;;5076440;28;20455;-69
2021/03/09 10:19:23;;;;;;;29.50;17.53;;;5.40;99.90;;;;;;5077087;28;20592;-71
2021/03/09 10:21:56;;;;;;;25.80;17.03;;;5.40;99.90;;;;;;5078088;28;20505;-70
2021/03/09 10:24:31;;;;;;;24.87;17.37;;;5.40;99.90;;;;;;5069254;28;20481;-69
2021/03/09 10:27:00;;;;;;;26.97;17.20;;;5.50;99.90;;;;;;5070471;28;20420;-70
2021/03/09 10:29:32;;;;;;;25.03;17.10;;;5.50;99.90;;;;;;5047848;28;20498;-69
2021/03/09 10:32:03;;;;;;;27.07;17.70;;;5.40;99.90;;;;;;5050950;28;20466;-69
2021/03/09 10:34:52;;;;;;;22.10;16.87;;;5.40;99.90;;;;;;5064438;28;20761;-69
2021/03/09 10:37:31;;;;;;;25.73;16.70;;;5.40;99.90;;;;;;5056518;28;20431;-70
2021/03/09 10:39:58;;;;;;;21.30;16.47;;;5.30;99.90;;;;;;5063072;28;20848;-69
2021/03/09 10:42:27;;;;;;;23.47;15.57;;;5.40;99.90;;;;;;5049536;28;20449;-70
2021/03/09 10:44:57;;;;;;;19.90;14.63;;;5.40;99.90;;;;;;5053301;28;20463;-71
2021/03/09 10:47:24;;;;;;;21.23;14.47;;;5.40;99.90;;;;;;5060942;28;20417;-70
2021/03/09 10:49:50;;;;;;;28.00;15.93;;;5.40;99.90;;;;;;5031524;28;20418;-70
2021/03/09 10:52:17;;;;;;;22.10;15.30;;;5.40;99.90;;;;;;5035779;28;20487;-68
2021/03/09 10:54:42;;;;;;;18.47;13.47;;;5.50;99.90;;;;;;5032477;28;20452;-69
2021/03/09 10:57:10;;;;;;;18.57;14.00;;;5.40;99.90;;;;;;5032651;28;20474;-69
2021/03/09 10:59:37;;;;;;;20.10;13.33;;;5.50;99.90;;;;;;5031971;28;20256;-70
2021/03/09 11:02:06;;;;;;;17.20;13.60;;;5.50;99.90;;;;;;5033770;28;20449;-69
2021/03/09 11:04:31;;;;;;;18.33;13.43;;;5.60;99.90;;;;;;5034785;28;20410;-69
2021/03/09 11:06:57;;;;;;;20.03;14.80;;;5.50;99.90;;;;;;5034461;28;20459;-69
2021/03/09 11:09:22;;;;;;;22.77;14.50;;;5.50;99.90;;;;;;5034559;28;20647;-70
2021/03/09 11:11:48;;;;;;;17.80;13.93;;;5.70;99.90;;;;;;5035254;28;20202;-71
2021/03/09 11:14:14;;;;;;;22.70;15.50;;;5.70;99.90;;;;;;5035543;28;20178;-69
2021/03/09 11:16:39;;;;;;;19.97;15.30;;;5.70;99.90;;;;;;5035370;28;20308;-70
2021/03/09 11:19:05;;;;;;;19.90;14.50;;;5.60;99.90;;;;;;5034672;28;20198;-70
2021/03/09 11:21:31;;;;;;;23.00;15.47;;;5.50;99.90;;;;;;5035298;28;20243;-70
2021/03/09 11:23:56;;;;;;;19.57;15.70;;;5.60;99.90;;;;;;5034685;28;20172;-69
2021/03/09 11:26:23;;;;;;;21.27;15.57;;;5.50;99.90;;;;;;5033931;28;20258;-69
2021/03/09 11:28:51;;;;;;;20.23;15.03;;;5.40;99.90;;;;;;5034057;28;20174;-69
2021/03/09 11:31:17;;;;;;;20.80;16.13;;;5.50;99.90;;;;;;5034363;28;20441;-68
2021/03/09 11:33:43;;;;;;;21.90;16.17;;;5.50;99.90;;;;;;5034344;28;20441;-69
2021/03/09 11:36:11;;;;;;;21.30;15.87;;;5.50;99.90;;;;;;5036325;28;20521;-70
2021/03/09 11:38:37;;;;;;;21.27;16.67;;;5.60;99.90;;;;;;5073969;28;20465;-70
2021/03/09 11:41:03;;;;;;;22.80;16.93;;;5.70;99.90;;;;;;5074644;28;20439;-70
2021/03/09 11:43:28;;;;;;;21.37;17.10;;;5.80;99.90;;;;;;5073908;28;20916;-69
2021/03/09 11:45:55;;;;;;;23.70;16.97;;;5.80;99.90;;;;;;5074224;28;20181;-69
2021/03/09 11:48:21;;;;;;;23.60;16.30;;;5.90;99.90;;;;;;5073405;28;20200;-70
2021/03/09 11:50:47;;;;;;;25.03;17.77;;;6.00;99.90;;;;;;5074075;28;20785;-70
2021/03/09 11:53:12;;;;;;;23.10;16.67;;;6.00;99.90;;;;;;5074196;28;20412;-70
2021/03/09 11:55:38;;;;;;;25.70;18.10;;;6.00;99.90;;;;;;5074380;28;20205;-70
2021/03/09 11:58:03;;;;;;;27.57;19.00;;;5.90;99.90;;;;;;5074110;28;20189;-70
2021/03/09 12:00:29;;;;;;;28.10;19.83;;;5.90;99.90;;;;;;5074164;28;20212;-70
2021/03/09 12:02:54;;;;;;;28.73;19.67;;;5.80;99.90;;;;;;5073266;28;20737;-69
2021/03/09 12:05:20;;;;;;;27.53;18.87;;;5.90;99.90;;;;;;5073648;28;20165;-69
2021/03/09 12:07:45;;;;;;;26.93;18.80;;;5.90;99.90;;;;;;5073935;28;20574;-69
2021/03/09 12:10:11;;;;;;;30.97;20.73;;;6.00;99.90;;;;;;5074210;28;20189;-70
2021/03/09 12:12:36;;;;;;;26.37;18.87;;;5.90;99.90;;;;;;5074509;28;20169;-69
2021/03/09 12:15:03;;;;;;;27.07;19.80;;;5.90;99.90;;;;;;5074132;28;20577;-70
2021/03/09 12:17:29;;;;;;;28.17;19.30;;;5.90;99.90;;;;;;5073942;28;20177;-69
2021/03/09 12:19:54;;;;;;;29.10;19.13;;;5.90;99.90;;;;;;5073535;28;20961;-70
2021/03/09 12:22:20;;;;;;;32.33;21.70;;;5.90;99.90;;;;;;5073733;28;20701;-70
2021/03/09 12:24:45;;;;;;;40.27;22.30;;;5.90;99.90;;;;;;5073601;28;20169;-69
2021/03/09 12:27:12;;;;;;;37.30;24.90;;;5.90;99.90;;;;;;5074082;28;20182;-70
2021/03/09 12:29:37;;;;;;;31.93;22.00;;;6.00;99.90;;;;;;5073756;28;20204;-69
2021/03/09 12:32:03;;;;;;;36.50;23.97;;;6.00;99.90;;;;;;5074097;28;20416;-70
2021/03/09 12:34:29;;;;;;;33.77;23.57;;;6.10;99.90;;;;;;5073839;28;20662;-69
2021/03/09 12:36:54;;;;;;;36.70;24.10;;;6.10;99.90;;;;;;5066336;28;20206;-69
2021/03/09 12:39:20;;;;;;;37.03;23.33;;;6.10;99.90;;;;;;5055665;28;20174;-69
2021/03/09 12:41:45;;;;;;;36.60;25.13;;;6.20;99.90;;;;;;5057894;28;20213;-70
2021/03/09 12:44:11;;;;;;;36.43;24.60;;;6.30;99.90;;;;;;5057203;28;20245;-69
2021/03/09 12:46:36;;;;;;;41.07;24.83;;;6.30;99.90;;;;;;5057627;28;20241;-70